Time;durP1;ratioP1;P1;durP2;ratioP2;P2;SDS_P1;SDS_P2;PMS_P1;PMS_P2;Temp;Humidity;BMP_temperature;BMP_pressure;BME280_temperature;BME280_humidity;BME280_pressure;Samples;Min_cycle;Max_cycle;Signal;HPM_P1;HPM_P2
2022/05/30 00:01:24;;;;;;;7.15;2.03;;;;;;;35.39;13.74;100055.75;5094401;28;20036;-63
2022/05/30 00:03:51;;;;;;;10.05;2.85;;;;;;;35.83;13.27;100063.66;5094555;28;20040;-63
2022/05/30 00:06:21;;;;;;;10.93;2.70;;;;;;;36.37;13.55;100060.66;5094318;28;20047;-63
2022/05/30 00:08:48;;;;;;;9.00;2.65;;;;;;;36.26;13.35;100048.88;5094217;28;20032;-64
2022/05/30 00:11:17;;;;;;;11.70;2.55;;;;;;;36.12;13.43;100050.19;5094221;28;20390;-64
2022/05/30 00:13:45;;;;;;;11.73;2.67;;;;;;;36.37;13.24;100054.19;5094160;28;20032;-63
2022/05/30 00:16:15;;;;;;;7.30;2.42;;;;;;;36.09;13.50;100079.38;5094552;28;20024;-64
2022/05/30 00:18:43;;;;;;;9.23;2.47;;;;;;;35.36;14.00;100050.19;5094216;28;20031;-63
2022/05/30 00:21:10;;;;;;;18.75;2.80;;;;;;;36.20;13.65;100051.50;5094002;28;20080;-64
2022/05/30 00:23:37;;;;;;;14.43;3.03;;;;;;;35.72;13.69;100049.84;5093983;28;20103;-63
2022/05/30 00:26:08;;;;;;;11.57;2.67;;;;;;;35.48;14.22;100063.56;5093959;28;20043;-64
2022/05/30 00:28:35;;;;;;;9.43;2.40;;;;;;;35.08;14.32;100063.13;5094057;28;20036;-64
2022/05/30 00:31:03;;;;;;;10.02;2.17;;;;;;;35.17;14.39;100082.25;5093909;28;20056;-62
2022/05/30 00:33:31;;;;;;;8.90;2.22;;;;;;;35.27;14.26;100073.47;5094007;28;20028;-63
2022/05/30 00:35:57;;;;;;;9.27;2.47;;;;;;;35.42;14.06;100046.38;5093958;28;20020;-63
2022/05/30 00:38:24;;;;;;;14.80;4.28;;;;;;;35.54;14.35;100063.78;5092362;28;20432;-63
2022/05/30 00:40:51;;;;;;;13.43;2.85;;;;;;;35.10;14.53;100055.78;5093900;28;20486;-63
2022/05/30 00:43:24;;;;;;;10.00;2.80;;;;;;;35.06;14.44;100060.75;5092403;28;20039;-64
2022/05/30 00:45:51;;;;;;;14.35;4.47;;;;;;;34.67;14.75;100044.13;5093775;28;20131;-64
2022/05/30 00:48:22;;;;;;;56.33;4.40;;;;;;;34.68;14.74;100051.38;5093793;28;20020;-63
2022/05/30 00:50:51;;;;;;;11.38;2.25;;;;;;;34.22;15.19;100036.44;5092350;28;20078;-63
2022/05/30 00:53:18;;;;;;;10.15;2.53;;;;;;;34.63;14.72;100063.19;5093633;28;20019;-64
2022/05/30 00:55:46;;;;;;;10.40;2.10;;;;;;;34.24;15.05;100048.06;5093567;28;20032;-63
2022/05/30 00:58:15;;;;;;;6.53;2.40;;;;;;;34.88;14.38;100043.56;5092406;28;20024;-62
2022/05/30 01:00:42;;;;;;;12.77;2.67;;;;;;;34.35;15.03;100039.34;5092201;28;20096;-63
2022/05/30 01:08:40;;;;;;;7.22;3.30;;;;;;;34.35;15.01;100048.63;5093219;28;20032;-64
2022/05/30 01:11:07;;;;;;;10.43;2.83;;;;;;;34.56;14.68;100035.16;5091219;28;20078;-64
2022/05/30 01:13:34;;;;;;;7.93;2.25;;;;;;;34.43;14.78;100037.94;5091852;28;20036;-63
2022/05/30 01:16:01;;;;;;;12.68;2.38;;;;;;;34.51;14.77;100028.84;5092103;28;20028;-63
2022/05/30 01:18:41;;;;;;;9.43;2.42;;;;;;;34.11;14.92;100035.94;5093252;28;20028;-64
2022/05/30 01:21:54;;;;;;;7.68;2.40;;;;;;;34.14;14.78;100032.25;5093044;28;20135;-63
2022/05/30 01:24:52;;;;;;;10.65;2.17;;;;;;;33.70;14.73;100059.09;5038568;28;20053;-64
2022/05/30 01:27:55;;;;;;;11.85;3.10;;;;;;;33.87;14.42;100044.59;5093406;28;20071;-63
2022/05/30 01:30:22;;;;;;;8.25;2.28;;;;;;;34.00;14.56;100046.72;5091813;28;20501;-64
2022/05/30 01:32:49;;;;;;;8.30;2.40;;;;;;;34.00;14.13;100044.69;5091665;28;20028;-63
2022/05/30 01:35:25;;;;;;;9.27;2.28;;;;;;;33.20;14.93;100040.47;5091771;28;20036;-64
2022/05/30 01:37:57;;;;;;;9.35;2.05;;;;;;;33.31;15.05;100041.81;5091529;28;20036;-64
2022/05/30 01:40:26;;;;;;;9.40;2.30;;;;;;;33.37;14.75;100047.75;5091638;28;20040;-62
2022/05/30 01:42:55;;;;;;;10.10;2.47;;;;;;;33.34;14.68;100063.50;5091798;28;20031;-63
2022/05/30 01:45:23;;;;;;;10.77;2.20;;;;;;;33.06;15.35;100055.69;5091686;28;20065;-64
2022/05/30 01:47:51;;;;;;;12.02;2.35;;;;;;;33.15;15.05;100072.75;5091650;28;20576;-64
2022/05/30 01:50:18;;;;;;;8.13;2.30;;;;;;;32.87;14.53;100067.75;5091735;28;20040;-64
2022/05/30 01:52:46;;;;;;;7.32;1.88;;;;;;;32.69;15.01;100063.22;5091703;28;20024;-63
2022/05/30 01:55:17;;;;;;;10.05;2.20;;;;;;;32.56;14.88;100065.09;5091494;28;20115;-63
2022/05/30 01:57:50;;;;;;;7.00;2.08;;;;;;;32.60;14.51;100070.63;5091647;28;20066;-63
2022/05/30 02:00:43;;;;;;;12.77;2.67;;;;;;;32.27;14.80;100069.63;5076292;28;20135;-63
2022/05/30 02:03:09;;;;;;;8.70;2.30;;;;;;;32.06;15.34;100076.38;5091482;28;20036;-62
2022/05/30 02:05:36;;;;;;;9.20;2.22;;;;;;;32.02;15.43;100075.66;5091890;28;20390;-63
2022/05/30 02:08:03;;;;;;;10.65;2.13;;;;;;;31.92;15.52;100080.22;5091310;28;20032;-63
2022/05/30 02:10:31;;;;;;;8.02;2.05;;;;;;;31.72;15.52;100082.13;5091227;28;20032;-64
2022/05/30 02:13:02;;;;;;;11.18;2.20;;;;;;;31.70;15.75;100084.56;5091518;28;20051;-63
2022/05/30 02:18:48;;;;;;;10.70;2.20;;;;;;;31.36;15.73;100091.06;5090688;28;20398;-62
2022/05/30 02:21:14;;;;;;;8.73;2.45;;;;;;;31.15;16.08;100082.88;5091116;28;20055;-63
2022/05/30 02:23:41;;;;;;;7.00;2.08;;;;;;;31.10;15.66;100083.38;5094326;28;20127;-64
2022/05/30 02:26:09;;;;;;;8.90;2.10;;;;;;;30.93;15.77;100088.78;5094932;28;20036;-63
2022/05/30 02:28:37;;;;;;;5.78;2.30;;;;;;;30.80;15.94;100082.09;5094901;28;20035;-64
2022/05/30 02:31:04;;;;;;;9.82;2.55;;;;;;;30.69;15.90;100078.59;5094759;28;20031;-63
2022/05/30 02:39:12;;;;;;;10.98;2.28;;;;;;;30.40;16.29;100094.13;5094545;28;20448;-63
2022/05/30 02:42:12;;;;;;;14.88;2.60;;;;;;;30.13;16.86;100108.75;5083379;28;20131;-63
2022/05/30 02:44:40;;;;;;;14.63;2.90;;;;;;;30.00;16.83;100113.25;5075420;28;20036;-64
2022/05/30 02:47:07;;;;;;;10.48;2.53;;;;;;;29.75;16.89;100108.59;5094320;28;20024;-64
2022/05/30 02:49:37;;;;;;;13.77;2.42;;;;;;;29.67;17.03;100114.66;5094676;28;20118;-64
2022/05/30 02:52:04;;;;;;;13.43;3.33;;;;;;;29.66;16.84;100130.69;5094435;28;20059;-64
2022/05/30 02:54:31;;;;;;;12.38;3.28;;;;;;;29.57;16.74;100121.91;5094415;28;20105;-64
2022/05/30 02:57:33;;;;;;;14.23;2.67;;;;;;;29.57;17.04;100137.91;5021009;28;20033;-63
2022/05/30 03:00:00;;;;;;;10.50;2.80;;;;;;;29.17;17.34;100140.88;5065022;28;20040;-64
2022/05/30 03:02:29;;;;;;;17.30;3.03;;;;;;;29.15;17.17;100136.88;5074590;28;20050;-63
2022/05/30 03:04:58;;;;;;;12.85;2.88;;;;;;;29.33;16.73;100148.81;5090888;28;20514;-64
2022/05/30 03:07:25;;;;;;;15.90;2.67;;;;;;;29.27;16.86;100158.03;5090790;28;20031;-63
2022/05/30 03:09:52;;;;;;;11.50;2.83;;;;;;;29.18;16.97;100153.66;5084761;28;20557;-64
2022/05/30 03:12:26;;;;;;;;;;;;;;;29.12;16.90;100148.91;5074210;28;20390;-64
2022/05/30 03:14:53;;;;;;;12.85;2.50;;;;;;;29.27;16.65;100149.66;5075647;28;19962;-63
2022/05/30 03:17:20;;;;;;;15.45;3.88;;;;;;;29.17;16.51;100156.88;5073932;28;20028;-64
2022/05/30 03:19:52;;;;;;;16.23;3.63;;;;;;;28.86;17.21;100164.94;5090669;28;20033;-64
2022/05/30 03:22:21;;;;;;;17.42;3.28;;;;;;;28.93;17.00;100166.94;5074032;28;20053;-64
2022/05/30 03:25:06;;;;;;;30.88;3.92;;;;;;;29.02;17.22;100166.50;5075272;28;20047;-64
2022/05/30 03:27:33;;;;;;;31.08;4.15;;;;;;;28.53;18.20;100168.94;5073496;28;20073;-64
2022/05/30 03:30:00;;;;;;;42.50;4.47;;;;;;;28.63;17.93;100166.53;5074665;28;20033;-64
2022/05/30 03:32:27;;;;;;;40.35;3.95;;;;;;;28.71;17.71;100174.50;5074697;28;20064;-64
2022/05/30 03:34:53;;;;;;;45.50;4.28;;;;;;;28.53;17.73;100174.53;5055590;28;20390;-64
2022/05/30 03:37:21;;;;;;;38.72;4.13;;;;;;;28.33;17.79;100176.13;5090134;28;20063;-63
2022/05/30 03:39:58;;;;;;;27.92;4.43;;;;;;;28.38;18.18;100177.75;5086703;28;20020;-63
2022/05/30 03:42:44;;;;;;;21.17;3.05;;;;;;;28.23;18.24;100183.28;5095193;28;20047;-64
2022/05/30 03:45:18;;;;;;;25.50;3.42;;;;;;;28.17;17.87;100172.88;5093302;28;20042;-63
2022/05/30 03:47:47;;;;;;;24.73;3.30;;;;;;;28.27;17.95;100184.13;5093279;28;20069;-63
2022/05/30 03:50:19;;;;;;;17.13;3.13;;;;;;;28.24;18.21;100179.28;5093173;28;20021;-65
2022/05/30 03:52:46;;;;;;;24.33;3.38;;;;;;;28.24;18.05;100179.28;5076601;28;20557;-63
2022/05/30 03:55:19;;;;;;;19.63;3.17;;;;;;;28.33;17.51;100172.53;5093188;28;20050;-62
2022/05/30 03:57:47;;;;;;;22.88;3.40;;;;;;;28.19;18.06;100168.53;5093323;28;20028;-63
2022/05/30 04:00:17;;;;;;;13.50;2.80;;;;;;;28.02;17.93;100174.09;5090135;28;20503;-64
2022/05/30 04:02:47;;;;;;;14.07;3.25;;;;;;;28.05;18.03;100181.66;5094803;28;20063;-62
2022/05/30 04:05:20;;;;;;;14.73;3.22;;;;;;;28.00;18.40;100177.25;5092999;28;20036;-63
2022/05/30 04:07:47;;;;;;;17.85;3.20;;;;;;;27.94;18.12;100176.03;5076416;28;20028;-63
2022/05/30 04:10:37;;;;;;;15.55;2.70;;;;;;;27.99;18.23;100172.84;5094095;28;20111;-62
2022/05/30 04:13:38;;;;;;;12.05;2.75;;;;;;;27.89;18.02;100180.03;5075385;28;20044;-63
2022/05/30 04:16:37;;;;;;;15.55;3.53;;;;;;;27.66;18.47;100179.56;5081777;28;20063;-62
2022/05/30 04:19:09;;;;;;;15.82;4.40;;;;;;;27.58;18.84;100184.28;5093173;28;20119;-62
2022/05/30 04:21:36;;;;;;;15.80;4.28;;;;;;;27.33;19.11;100191.78;5075674;28;20379;-64
2022/05/30 04:24:05;;;;;;;19.00;4.05;;;;;;;27.30;19.22;100198.94;5076116;28;20058;-63
2022/05/30 04:26:40;;;;;;;20.88;3.83;;;;;;;27.22;19.15;100200.06;5092339;28;20032;-62
2022/05/30 04:29:07;;;;;;;19.33;4.30;;;;;;;27.01;19.83;100205.53;5092989;28;20039;-62
2022/05/30 04:31:37;;;;;;;18.42;3.35;;;;;;;27.02;19.90;100216.28;5093982;28;20028;-62
2022/05/30 04:34:04;;;;;;;15.50;3.30;;;;;;;26.78;20.26;100228.84;5092853;28;20101;-62
2022/05/30 04:36:33;;;;;;;21.85;4.60;;;;;;;26.56;20.66;100224.25;5093938;28;20084;-62
2022/05/30 04:39:00;;;;;;;20.98;3.78;;;;;;;26.47;20.51;100240.53;5092346;28;20118;-61
2022/05/30 04:41:44;;;;;;;;;;;;;;;26.47;21.01;100252.47;5094305;28;20112;-63
2022/05/30 04:44:14;;;;;;;19.05;4.15;;;;;;;26.24;21.14;100264.94;5093833;28;19923;-62
2022/05/30 04:46:59;;;;;;;24.52;4.07;;;;;;;26.18;21.18;100270.84;5093541;28;20050;-64
2022/05/30 04:49:27;;;;;;;23.55;5.55;;;;;;;26.00;21.28;100286.56;5092494;28;20040;-62
2022/05/30 04:51:54;;;;;;;25.05;4.85;;;;;;;26.11;21.36;100279.13;5093803;28;20020;-62
2022/05/30 04:54:22;;;;;;;26.20;6.50;;;;;;;25.86;21.61;100292.78;5092382;28;20091;-63
2022/05/30 04:57:12;;;;;;;33.83;5.47;;;;;;;26.05;21.15;100291.81;5086804;28;20032;-62
2022/05/30 05:00:00;;;;;;;23.80;5.13;;;;;;;25.72;21.49;100295.38;5078458;28;20077;-62
2022/05/30 05:02:27;;;;;;;23.88;4.93;;;;;;;25.69;22.08;100303.69;5092052;28;20037;-62
2022/05/30 05:04:54;;;;;;;20.50;4.38;;;;;;;25.72;21.85;100294.56;5092193;28;20023;-63
2022/05/30 05:07:22;;;;;;;19.42;4.30;;;;;;;25.83;22.00;100312.19;5092081;28;20423;-63
2022/05/30 05:10:06;;;;;;;21.52;3.85;;;;;;;25.70;22.22;100313.63;5092067;28;20451;-63
2022/05/30 05:13:11;;;;;;;14.45;4.40;;;;;;;25.70;21.61;100325.56;5051209;28;20061;-63
2022/05/30 05:15:57;;;;;;;16.65;4.72;;;;;;;25.46;21.90;100326.75;5051051;28;20593;-62
2022/05/30 05:18:27;;;;;;;16.30;4.10;;;;;;;25.29;22.69;100327.28;5077386;28;20044;-63
2022/05/30 05:20:53;;;;;;;17.80;3.30;;;;;;;25.41;22.66;100337.41;5074811;28;20490;-61
2022/05/30 05:23:20;;;;;;;12.82;3.20;;;;;;;25.33;22.59;100344.06;5092249;28;20047;-65
2022/05/30 05:26:08;;;;;;;7.90;2.83;;;;;;;25.32;22.73;100332.13;5091939;28;20028;-64
2022/05/30 05:28:58;;;;;;;16.75;2.78;;;;;;;25.38;23.07;100340.94;5087544;28;20132;-64
2022/05/30 05:31:33;;;;;;;13.32;2.72;;;;;;;25.35;23.09;100330.56;5091842;28;20039;-63
2022/05/30 05:34:00;;;;;;;;;;;;;;;25.27;23.28;100324.09;5075686;28;20038;-64
2022/05/30 05:36:29;;;;;;;9.43;2.97;;;;;;;25.27;23.69;100319.31;5091858;28;20002;-63
2022/05/30 05:38:57;;;;;;;12.02;3.20;;;;;;;25.02;24.21;100326.47;5075413;28;20032;-64
2022/05/30 05:41:41;;;;;;;13.00;3.35;;;;;;;25.06;24.26;100323.75;5071642;28;20033;-64
2022/05/30 05:44:13;;;;;;;20.25;3.03;;;;;;;25.03;24.93;100328.09;5071545;28;20491;-64
2022/05/30 05:46:40;;;;;;;15.13;2.65;;;;;;;24.95;24.67;100329.91;5071531;28;20131;-64
2022/05/30 05:49:09;;;;;;;11.23;2.83;;;;;;;24.98;24.68;100331.97;5071379;28;20391;-64
2022/05/30 05:51:38;;;;;;;7.65;2.58;;;;;;;24.92;25.01;100341.75;5084791;28;20127;-63
2022/05/30 05:54:08;;;;;;;10.43;2.78;;;;;;;24.86;25.36;100353.56;5091801;28;20028;-65
2022/05/30 05:56:36;;;;;;;11.23;3.90;;;;;;;24.77;25.58;100344.66;5091580;28;20035;-63
2022/05/30 05:59:07;;;;;;;11.88;3.33;;;;;;;24.79;25.46;100354.25;5093388;28;20103;-62
2022/05/30 06:01:35;;;;;;;10.38;2.72;;;;;;;24.88;25.55;100346.47;5095308;28;20040;-63
2022/05/30 06:04:06;;;;;;;12.65;2.47;;;;;;;24.70;25.92;100348.13;5078911;28;20028;-64
2022/05/30 06:06:51;;;;;;;12.13;2.30;;;;;;;24.72;25.68;100343.00;5096252;28;20054;-63
2022/05/30 06:09:27;;;;;;;12.88;2.65;;;;;;;24.72;25.92;100345.78;5095126;28;20486;-63
2022/05/30 06:12:01;;;;;;;8.73;2.70;;;;;;;24.63;26.32;100351.59;5095481;28;20043;-63
2022/05/30 06:14:29;;;;;;;12.10;2.50;;;;;;;24.82;26.07;100359.06;5078914;28;20051;-65
2022/05/30 06:16:57;;;;;;;11.75;2.80;;;;;;;24.75;26.30;100356.16;5095445;28;20028;-63
2022/05/30 06:19:27;;;;;;;13.80;2.75;;;;;;;24.65;26.33;100365.09;5095311;28;20101;-63
2022/05/30 06:21:53;;;;;;;11.23;2.88;;;;;;;24.39;26.63;100377.69;5096274;28;20048;-64
2022/05/30 06:24:20;;;;;;;9.68;2.88;;;;;;;24.25;26.98;100374.63;5078436;28;20119;-63
2022/05/30 06:27:06;;;;;;;9.45;2.70;;;;;;;23.98;27.52;100370.06;5096724;28;20101;-64
2022/05/30 06:29:50;;;;;;;11.20;3.85;;;;;;;23.74;28.14;100363.63;5095186;28;20039;-64
2022/05/30 06:32:19;;;;;;;10.80;3.63;;;;;;;23.68;28.40;100373.38;5095026;28;20043;-64
2022/05/30 06:35:11;;;;;;;13.77;3.50;;;;;;;23.60;28.66;100373.59;5094957;28;20044;-63
2022/05/30 06:37:40;;;;;;;10.68;3.92;;;;;;;23.67;28.62;100368.19;5094997;28;20121;-63
2022/05/30 06:40:09;;;;;;;10.27;3.40;;;;;;;23.72;28.85;100367.94;5078185;28;20057;-63
2022/05/30 06:42:42;;;;;;;19.38;3.78;;;;;;;23.88;28.89;100359.53;5094721;28;20569;-64
2022/05/30 06:45:33;;;;;;;10.30;3.05;;;;;;;23.86;28.97;100353.53;5095846;28;20486;-63
2022/05/30 06:48:18;;;;;;;13.40;3.88;;;;;;;23.89;29.15;100353.63;5096322;28;20165;-63
2022/05/30 06:50:58;;;;;;;11.93;3.25;;;;;;;23.75;29.51;100356.09;5095653;28;20036;-63
2022/05/30 06:53:26;;;;;;;11.40;3.10;;;;;;;23.61;29.54;100364.91;5095866;28;20390;-64
2022/05/30 06:55:55;;;;;;;10.65;3.05;;;;;;;23.44;29.62;100360.50;5093980;28;20038;-63
2022/05/30 06:58:22;;;;;;;13.45;3.05;;;;;;;23.36;29.46;100371.81;5094629;28;20046;-63
2022/05/30 07:00:49;;;;;;;11.70;2.53;;;;;;;23.38;28.87;100370.28;5094379;28;20024;-64
2022/05/30 07:03:28;;;;;;;13.40;3.15;;;;;;;23.34;28.93;100371.34;5095641;28;20040;-65
2022/05/30 07:06:16;;;;;;;9.60;2.65;;;;;;;23.46;28.42;100360.16;5095880;28;20042;-64
2022/05/30 07:09:05;;;;;;;8.20;3.20;;;;;;;23.75;27.69;100356.91;5086925;28;20036;-64
2022/05/30 07:11:39;;;;;;;;;;;;;;;23.62;27.75;100357.38;5096043;28;20028;-63
2022/05/30 07:14:12;;;;;;;10.18;3.47;;;;;;;23.86;27.28;100348.78;5094485;28;19954;-64
2022/05/30 07:16:40;;;;;;;16.17;2.85;;;;;;;23.75;27.18;100353.31;5094071;28;20170;-63
2022/05/30 07:19:09;;;;;;;6.82;3.20;;;;;;;23.84;26.93;100358.66;5075668;28;20475;-63
2022/05/30 07:21:41;;;;;;;15.07;3.05;;;;;;;23.98;26.46;100358.97;5093281;28;20429;-64
2022/05/30 07:24:26;;;;;;;18.52;3.83;;;;;;;23.86;26.84;100356.31;5074301;28;20047;-63
2022/05/30 07:27:12;;;;;;;11.20;2.65;;;;;;;23.64;27.17;100361.38;5094427;28;20047;-64
2022/05/30 07:29:58;;;;;;;9.02;2.75;;;;;;;23.56;27.95;100370.69;5084344;28;20044;-64
2022/05/30 07:32:44;;;;;;;14.27;3.13;;;;;;;23.44;27.87;100359.72;5088427;28;20196;-64
2022/05/30 07:35:29;;;;;;;16.10;3.05;;;;;;;23.37;27.51;100363.13;5092784;28;20521;-63
2022/05/30 07:38:16;;;;;;;11.63;3.75;;;;;;;23.36;27.56;100360.72;5074082;28;20055;-63
2022/05/30 07:41:06;;;;;;;8.30;3.60;;;;;;;23.54;27.19;100355.59;5051543;28;20079;-62
2022/05/30 07:44:02;;;;;;;8.75;2.30;;;;;;;23.33;27.28;100359.44;5080066;28;20079;-62
2022/05/30 07:46:51;;;;;;;16.05;3.25;;;;;;;23.56;26.99;100356.81;5077563;28;20402;-63
2022/05/30 07:49:36;;;;;;;10.27;2.90;;;;;;;23.15;27.71;100367.31;5092454;28;20043;-63
2022/05/30 07:52:25;;;;;;;14.38;2.80;;;;;;;23.23;26.89;100356.44;5092175;28;20032;-63
2022/05/30 07:55:17;;;;;;;16.58;3.22;;;;;;;22.85;28.07;100357.84;5089592;28;20397;-63
2022/05/30 07:57:53;;;;;;;13.20;3.00;;;;;;;22.81;28.13;100352.19;5091994;28;20058;-63
2022/05/30 08:00:31;;;;;;;19.25;3.22;;;;;;;22.87;27.96;100344.44;5089807;28;20040;-63
2022/05/30 08:03:05;;;;;;;10.98;3.10;;;;;;;23.00;27.54;100354.28;5070170;28;20068;-65
2022/05/30 08:05:33;;;;;;;12.77;3.50;;;;;;;22.87;27.74;100355.53;5090183;28;20043;-63
2022/05/30 08:08:19;;;;;;;15.18;4.95;;;;;;;22.67;27.71;100353.78;5091929;28;20043;-63
2022/05/30 08:10:55;;;;;;;12.15;3.38;;;;;;;22.70;27.96;100359.41;5089508;28;20505;-63
2022/05/30 08:13:23;;;;;;;14.80;3.50;;;;;;;22.91;27.50;100356.41;5091222;28;20028;-64
2022/05/30 08:15:55;;;;;;;18.27;3.67;;;;;;;22.95;26.97;100350.97;5091234;28;20352;-65
2022/05/30 08:18:28;;;;;;;21.20;3.55;;;;;;;23.00;26.98;100353.50;5090462;28;20409;-64
2022/05/30 08:21:02;;;;;;;18.02;3.53;;;;;;;22.81;27.47;100351.41;5089385;28;20070;-63
2022/05/30 08:23:32;;;;;;;11.00;2.35;;;;;;;23.08;26.71;100344.97;5090871;28;20508;-63
2022/05/30 08:26:01;;;;;;;7.72;2.95;;;;;;;22.97;26.82;100346.66;5091086;28;20035;-63
2022/05/30 08:28:35;;;;;;;17.40;3.08;;;;;;;22.64;28.50;100341.44;5090999;28;20042;-63
2022/05/30 08:31:04;;;;;;;14.95;4.53;;;;;;;22.52;27.87;100347.84;5090986;28;20487;-64
2022/05/30 08:33:53;;;;;;;10.57;3.10;;;;;;;22.92;26.94;100336.66;5091724;28;20031;-64
2022/05/30 08:36:36;;;;;;;13.75;3.53;;;;;;;22.56;29.02;100336.88;5089051;28;20051;-64
2022/05/30 08:41:49;;;;;;;13.77;3.38;;;;;;;22.72;27.30;100347.97;5090665;28;20040;-62
2022/05/30 08:44:37;;;;;;;11.77;2.85;;;;;;;23.11;26.79;100341.50;5045636;28;20032;-65
2022/05/30 08:48:08;;;;;;;13.32;3.05;;;;;;;23.06;26.79;100319.59;5070138;28;20444;-63
2022/05/30 08:50:56;;;;;;;10.57;3.75;;;;;;;22.84;26.95;100321.03;5029492;28;20116;-63
2022/05/30 08:53:42;;;;;;;12.52;4.28;;;;;;;22.49;27.83;100323.66;5009384;28;20123;-64
2022/05/30 08:56:20;;;;;;;14.90;3.10;;;;;;;22.47;27.88;100322.41;5076717;28;20047;-63
2022/05/30 08:59:24;;;;;;;14.68;3.38;;;;;;;22.47;27.71;100320.44;5091444;28;20036;-62
2022/05/30 09:02:13;;;;;;;8.18;2.60;;;;;;;22.80;27.20;100316.50;5090205;28;20503;-64
2022/05/30 09:04:53;;;;;;;10.95;2.40;;;;;;;22.60;27.56;100318.38;5091812;28;20032;-65
2022/05/30 09:07:28;;;;;;;9.77;2.60;;;;;;;22.20;28.31;100318.47;5089150;28;20031;-63
2022/05/30 09:09:58;;;;;;;;;;;;;;;21.99;28.60;100319.44;5088792;28;20024;-65
2022/05/30 09:12:47;;;;;;;13.88;4.53;;;;;;;21.78;29.87;100321.59;5091505;28;19969;-64
2022/05/30 09:15:45;;;;;;;13.50;3.88;;;;;;;21.73;29.95;100316.31;5091637;28;20101;-65
2022/05/30 09:18:23;;;;;;;11.38;3.10;;;;;;;21.75;30.13;100319.53;5087877;28;20535;-63
2022/05/30 09:20:51;;;;;;;20.85;3.08;;;;;;;21.56;30.63;100328.44;5068826;28;20048;-65
2022/05/30 09:23:23;;;;;;;9.50;2.88;;;;;;;21.74;30.21;100322.66;5090748;28;20028;-65
2022/05/30 09:25:56;;;;;;;9.88;2.70;;;;;;;21.82;30.29;100322.50;5088089;28;20032;-63
2022/05/30 09:28:48;;;;;;;7.90;2.45;;;;;;;21.67;30.49;100321.25;5085147;28;20040;-65
2022/05/30 09:31:56;;;;;;;12.32;2.50;;;;;;;21.60;30.59;100320.25;5087640;28;20043;-64
2022/05/30 09:34:38;;;;;;;10.63;2.50;;;;;;;21.69;30.24;100323.69;5094934;28;20524;-65
2022/05/30 09:37:32;;;;;;;10.65;2.53;;;;;;;21.80;29.98;100322.06;5093814;28;20086;-64
2022/05/30 09:40:39;;;;;;;9.13;2.10;;;;;;;21.68;30.07;100317.34;5072385;28;20028;-64
2022/05/30 09:43:43;;;;;;;4.57;1.75;;;;;;;21.70;29.97;100317.78;5070554;28;20040;-64
2022/05/30 09:46:21;;;;;;;3.85;1.70;;;;;;;21.57;30.03;100323.72;5076863;28;20060;-65
2022/05/30 09:49:26;;;;;;;4.30;2.00;;;;;;;21.78;29.42;100327.13;5076721;28;20395;-64
2022/05/30 09:52:04;;;;;;;4.38;1.67;;;;;;;21.76;29.28;100332.22;5075351;28;20556;-64
2022/05/30 09:54:39;;;;;;;9.23;2.20;;;;;;;21.84;28.99;100336.78;5075479;28;20098;-64
2022/05/30 09:57:19;;;;;;;10.73;2.08;;;;;;;21.73;30.19;100329.34;5075217;28;20033;-63
2022/05/30 10:00:32;;;;;;;11.15;2.33;;;;;;;21.45;30.71;100335.59;5073431;28;20036;-65
2022/05/30 10:03:13;;;;;;;10.60;2.10;;;;;;;21.22;31.53;100338.00;5075208;28;20041;-64
2022/05/30 10:05:43;;;;;;;6.47;2.28;;;;;;;21.04;31.96;100345.72;5058903;28;20524;-63
2022/05/30 10:08:30;;;;;;;12.88;2.22;;;;;;;20.92;32.12;100339.34;5075089;28;20402;-63
2022/05/30 10:11:30;;;;;;;11.18;2.60;;;;;;;20.91;33.32;100330.28;5080333;28;20036;-63
2022/05/30 10:13:59;;;;;;;7.03;1.88;;;;;;;20.95;32.66;100339.47;5095247;28;20070;-64
2022/05/30 10:16:35;;;;;;;25.08;2.60;;;;;;;20.86;33.07;100333.25;5096481;28;20442;-63
2022/05/30 10:19:06;;;;;;;9.93;2.28;;;;;;;20.83;32.29;100335.91;5096544;28;20093;-63
2022/05/30 10:28:51;;;;;;;8.00;2.10;;;;;;;20.90;32.25;100342.47;5034006;28;20041;-63
2022/05/30 10:31:43;;;;;;;6.65;2.03;;;;;;;20.80;31.97;100346.47;5053035;28;20165;-63
2022/05/30 10:34:32;;;;;;;7.35;2.05;;;;;;;20.75;31.91;100351.41;5094081;28;20555;-62
2022/05/30 10:37:45;;;;;;;7.28;2.10;;;;;;;20.80;31.95;100349.22;5093185;28;20036;-62
2022/05/30 10:40:25;;;;;;;6.05;1.92;;;;;;;20.76;32.25;100347.50;5093482;28;20040;-63
2022/05/30 10:43:05;;;;;;;7.30;1.80;;;;;;;20.75;32.39;100345.88;5093191;28;20058;-63
2022/05/30 10:45:37;;;;;;;31.52;3.00;;;;;;;20.74;32.07;100347.03;5094234;28;20160;-63
2022/05/30 10:48:07;;;;;;;8.07;2.10;;;;;;;21.09;31.57;100348.25;5094494;28;20048;-64
2022/05/30 10:51:05;;;;;;;7.03;2.10;;;;;;;20.88;31.60;100347.53;5096078;28;20045;-64
2022/05/30 10:53:59;;;;;;;6.53;2.05;;;;;;;20.57;32.51;100350.78;5094621;28;20127;-64
2022/05/30 10:56:49;;;;;;;4.85;1.80;;;;;;;20.48;33.59;100358.38;5096021;28;20143;-63
2022/05/30 10:59:51;;;;;;;16.00;2.10;;;;;;;20.39;33.56;100360.38;5078161;28;20455;-64
2022/05/30 11:02:23;;;;;;;7.15;2.35;;;;;;;20.34;32.93;100366.91;5094129;28;20097;-63
2022/05/30 11:05:15;;;;;;;8.45;2.20;;;;;;;20.31;33.06;100353.78;5094230;28;20034;-64
2022/05/30 11:08:02;;;;;;;6.43;1.92;;;;;;;20.47;32.24;100357.56;5094473;28;20032;-65
2022/05/30 11:10:50;;;;;;;7.35;2.03;;;;;;;20.49;32.81;100354.47;5094220;28;20093;-63
2022/05/30 11:13:55;;;;;;;9.60;2.10;;;;;;;20.44;33.16;100357.41;5094256;28;20040;-64
2022/05/30 11:16:36;;;;;;;10.27;2.60;;;;;;;20.41;32.69;100369.13;5091754;28;20044;-63
2022/05/30 11:19:41;;;;;;;10.20;3.65;;;;;;;20.32;32.57;100371.16;5095543;28;20059;-62
2022/05/30 11:22:36;;;;;;;10.93;2.97;;;;;;;20.30;32.96;100374.25;5093842;28;20044;-64
2022/05/30 11:25:05;;;;;;;10.55;2.60;;;;;;;20.34;32.30;100371.63;5095627;28;20490;-64
2022/05/30 11:27:43;;;;;;;13.18;3.63;;;;;;;20.29;33.30;100371.81;5095252;28;20107;-64
2022/05/30 11:30:12;;;;;;;11.63;2.72;;;;;;;20.33;32.75;100373.56;5093968;28;20036;-64
2022/05/30 11:32:49;;;;;;;10.23;2.50;;;;;;;20.29;32.32;100375.41;5095051;28;20035;-63
2022/05/30 11:35:35;;;;;;;11.07;2.25;;;;;;;20.35;32.59;100382.31;5095139;28;20032;-64
2022/05/30 11:38:22;;;;;;;10.10;2.40;;;;;;;20.35;32.78;100387.84;5094864;28;20078;-64
2022/05/30 11:40:49;;;;;;;16.88;3.13;;;;;;;20.36;33.02;100380.38;5094959;28;20032;-64
2022/05/30 11:43:34;;;;;;;9.27;2.63;;;;;;;20.31;33.24;100384.16;5094724;28;20031;-64
2022/05/30 11:46:48;;;;;;;6.63;2.70;;;;;;;20.23;33.34;100388.59;5094876;28;20080;-64
2022/05/30 11:49:29;;;;;;;7.85;2.67;;;;;;;20.13;33.05;100391.78;5084985;28;20044;-63
2022/05/30 11:52:12;;;;;;;11.40;2.83;;;;;;;20.00;33.29;100392.03;5094654;28;20165;-63
2022/05/30 11:55:11;;;;;;;8.82;2.95;;;;;;;19.87;33.44;100391.13;5092737;28;20067;-63
2022/05/30 11:58:09;;;;;;;18.00;3.97;;;;;;;19.71;33.91;100398.38;5094615;28;20035;-63
2022/05/30 12:00:47;;;;;;;12.32;4.13;;;;;;;19.70;34.41;100402.28;5094597;28;20032;-63
2022/05/30 12:03:32;;;;;;;13.00;3.80;;;;;;;19.78;33.90;100406.94;5094400;28;20028;-63
2022/05/30 12:06:43;;;;;;;10.30;3.60;;;;;;;19.70;34.20;100413.31;5094697;28;20035;-62
2022/05/30 12:09:24;;;;;;;10.02;3.38;;;;;;;19.48;34.62;100411.63;5085851;28;20044;-61
2022/05/30 12:12:11;;;;;;;9.48;3.65;;;;;;;19.38;35.32;100415.53;5094329;28;20111;-63
2022/05/30 12:14:49;;;;;;;12.88;3.88;;;;;;;19.46;35.04;100420.22;5093208;28;20036;-62
2022/05/30 12:17:25;;;;;;;10.63;3.38;;;;;;;19.45;35.06;100431.59;5094265;28;20032;-61
2022/05/30 12:25:38;;;;;;;14.65;5.05;;;;;;;19.32;35.62;100438.91;5094384;28;20248;-63
2022/05/30 12:28:27;;;;;;;14.35;6.00;;;;;;;19.35;35.62;100438.25;5094222;28;20501;-63
2022/05/30 12:31:02;;;;;;;22.10;6.95;;;;;;;19.19;36.27;100442.69;5093918;28;20040;-63
2022/05/30 12:33:29;;;;;;;17.15;8.90;;;;;;;19.08;36.31;100441.44;5094239;28;20036;-62
2022/05/30 12:36:10;;;;;;;15.82;8.30;;;;;;;19.10;36.81;100444.69;5094018;28;20035;-63
2022/05/30 12:38:56;;;;;;;22.30;9.23;;;;;;;19.03;37.60;100442.44;5092904;28;20073;-64